sensor_id;sensor_type;location;lat;lon;timestamp;P1;durP1;ratioP1;P2;durP2;ratioP2
63259;SDS011;49390;51.380;0.098;2023-02-15T00:00:12;43.70;;;22.45;;
63259;SDS011;49390;51.380;0.098;2023-02-15T00:03:00;44.13;;;23.48;;
63259;SDS011;49390;51.380;0.098;2023-02-15T00:05:30;41.92;;;23.58;;
63259;SDS011;49390;51.380;0.098;2023-02-15T00:07:58;44.33;;;23.27;;
63259;SDS011;49390;51.380;0.098;2023-02-15T00:10:26;47.38;;;22.42;;
63259;SDS011;49390;51.380;0.098;2023-02-15T00:12:54;44.08;;;21.98;;
63259;SDS011;49390;51.380;0.098;2023-02-15T00:15:22;44.88;;;23.33;;
63259;SDS011;49390;51.380;0.098;2023-02-15T00:17:49;49.25;;;22.88;;
63259;SDS011;49390;51.380;0.098;2023-02-15T00:20:17;46.92;;;22.63;;
63259;SDS011;49390;51.380;0.098;2023-02-15T00:22:46;45.38;;;22.30;;
63259;SDS011;49390;51.380;0.098;2023-02-15T00:25:14;51.40;;;22.98;;
63259;SDS011;49390;51.380;0.098;2023-02-15T00:27:42;51.80;;;23.00;;
63259;SDS011;49390;51.380;0.098;2023-02-15T00:30:10;45.47;;;21.80;;
63259;SDS011;49390;51.380;0.098;2023-02-15T00:32:38;46.58;;;22.02;;
63259;SDS011;49390;51.380;0.098;2023-02-15T00:35:06;47.72;;;21.52;;
63259;SDS011;49390;51.380;0.098;2023-02-15T00:37:34;48.45;;;22.60;;
63259;SDS011;49390;51.380;0.098;2023-02-15T00:40:03;45.58;;;21.95;;
63259;SDS011;49390;51.380;0.098;2023-02-15T00:42:31;43.28;;;21.10;;
63259;SDS011;49390;51.380;0.098;2023-02-15T00:45:00;49.45;;;23.23;;
63259;SDS011;49390;51.380;0.098;2023-02-15T00:47:30;47.95;;;22.13;;
63259;SDS011;49390;51.380;0.098;2023-02-15T00:49:59;52.90;;;22.92;;
63259;SDS011;49390;51.380;0.098;2023-02-15T00:52:27;50.83;;;22.80;;
63259;SDS011;49390;51.380;0.098;2023-02-15T00:54:56;49.78;;;21.65;;
63259;SDS011;49390;51.380;0.098;2023-02-15T00:57:23;50.08;;;22.88;;
63259;SDS011;49390;51.380;0.098;2023-02-15T00:59:51;46.22;;;21.90;;
63259;SDS011;49390;51.380;0.098;2023-02-15T01:02:19;46.03;;;21.27;;
63259;SDS011;49390;51.380;0.098;2023-02-15T01:04:47;47.95;;;22.65;;
63259;SDS011;49390;51.380;0.098;2023-02-15T01:07:16;44.28;;;22.45;;
63259;SDS011;49390;51.380;0.098;2023-02-15T01:09:44;47.20;;;22.33;;
63259;SDS011;49390;51.380;0.098;2023-02-15T01:12:11;44.45;;;23.25;;
63259;SDS011;49390;51.380;0.098;2023-02-15T01:14:39;39.15;;;22.23;;
63259;SDS011;49390;51.380;0.098;2023-02-15T01:17:07;43.03;;;22.38;;
63259;SDS011;49390;51.380;0.098;2023-02-15T01:19:35;43.78;;;23.98;;
63259;SDS011;49390;51.380;0.098;2023-02-15T01:22:03;43.10;;;22.15;;
63259;SDS011;49390;51.380;0.098;2023-02-15T01:24:35;43.10;;;22.80;;
63259;SDS011;49390;51.380;0.098;2023-02-15T01:27:03;48.30;;;24.40;;
63259;SDS011;49390;51.380;0.098;2023-02-15T01:29:31;41.97;;;22.05;;
63259;SDS011;49390;51.380;0.098;2023-02-15T01:31:59;46.08;;;22.52;;
63259;SDS011;49390;51.380;0.098;2023-02-15T01:34:28;43.83;;;22.67;;
63259;SDS011;49390;51.380;0.098;2023-02-15T01:36:57;47.55;;;22.30;;
63259;SDS011;49390;51.380;0.098;2023-02-15T01:39:25;48.65;;;22.20;;
63259;SDS011;49390;51.380;0.098;2023-02-15T01:41:53;54.85;;;22.80;;
63259;SDS011;49390;51.380;0.098;2023-02-15T01:47:32;48.17;;;22.15;;
63259;SDS011;49390;51.380;0.098;2023-02-15T01:52:43;51.00;;;23.63;;
63259;SDS011;49390;51.380;0.098;2023-02-15T01:55:18;52.25;;;23.75;;
63259;SDS011;49390;51.380;0.098;2023-02-15T01:57:48;52.05;;;24.00;;
63259;SDS011;49390;51.380;0.098;2023-02-15T02:00:18;49.20;;;25.57;;
63259;SDS011;49390;51.380;0.098;2023-02-15T02:02:49;56.40;;;24.48;;
63259;SDS011;49390;51.380;0.098;2023-02-15T02:05:24;51.33;;;23.65;;
63259;SDS011;49390;51.380;0.098;2023-02-15T02:07:54;47.15;;;23.40;;
63259;SDS011;49390;51.380;0.098;2023-02-15T02:10:24;55.78;;;24.05;;
63259;SDS011;49390;51.380;0.098;2023-02-15T02:12:55;52.55;;;24.65;;
63259;SDS011;49390;51.380;0.098;2023-02-15T02:15:40;53.67;;;24.48;;
63259;SDS011;49390;51.380;0.098;2023-02-15T02:18:33;46.72;;;22.85;;
63259;SDS011;49390;51.380;0.098;2023-02-15T02:32:53;55.35;;;24.88;;
63259;SDS011;49390;51.380;0.098;2023-02-15T02:35:35;49.30;;;23.50;;
63259;SDS011;49390;51.380;0.098;2023-02-15T02:41:15;56.28;;;25.63;;
63259;SDS011;49390;51.380;0.098;2023-02-15T02:46:44;51.90;;;24.85;;
63259;SDS011;49390;51.380;0.098;2023-02-15T02:49:32;51.83;;;23.67;;
63259;SDS011;49390;51.380;0.098;2023-02-15T02:52:01;60.28;;;27.20;;
63259;SDS011;49390;51.380;0.098;2023-02-15T02:54:34;56.15;;;25.95;;
63259;SDS011;49390;51.380;0.098;2023-02-15T02:57:04;59.90;;;28.17;;
63259;SDS011;49390;51.380;0.098;2023-02-15T02:59:37;53.70;;;26.30;;
63259;SDS011;49390;51.380;0.098;2023-02-15T03:04:54;55.17;;;25.10;;
63259;SDS011;49390;51.380;0.098;2023-02-15T03:07:31;45.75;;;23.08;;
63259;SDS011;49390;51.380;0.098;2023-02-15T03:10:02;50.72;;;23.73;;
63259;SDS011;49390;51.380;0.098;2023-02-15T03:12:32;45.50;;;23.07;;
63259;SDS011;49390;51.380;0.098;2023-02-15T03:15:11;53.75;;;24.90;;
63259;SDS011;49390;51.380;0.098;2023-02-15T03:17:44;55.47;;;25.67;;
63259;SDS011;49390;51.380;0.098;2023-02-15T03:20:18;60.13;;;26.95;;
63259;SDS011;49390;51.380;0.098;2023-02-15T03:22:57;65.22;;;29.60;;
63259;SDS011;49390;51.380;0.098;2023-02-15T03:25:33;70.70;;;31.20;;
63259;SDS011;49390;51.380;0.098;2023-02-15T03:28:09;67.03;;;29.13;;
63259;SDS011;49390;51.380;0.098;2023-02-15T03:30:42;72.22;;;31.05;;
63259;SDS011;49390;51.380;0.098;2023-02-15T03:33:15;78.40;;;31.98;;
63259;SDS011;49390;51.380;0.098;2023-02-15T03:35:59;72.30;;;31.08;;
63259;SDS011;49390;51.380;0.098;2023-02-15T03:38:42;71.43;;;32.28;;
63259;SDS011;49390;51.380;0.098;2023-02-15T03:41:15;67.07;;;30.50;;
63259;SDS011;49390;51.380;0.098;2023-02-15T03:46:21;71.70;;;31.92;;
63259;SDS011;49390;51.380;0.098;2023-02-15T03:48:53;69.20;;;30.50;;
63259;SDS011;49390;51.380;0.098;2023-02-15T03:51:29;70.95;;;31.70;;
63259;SDS011;49390;51.380;0.098;2023-02-15T03:57:04;73.97;;;32.25;;
63259;SDS011;49390;51.380;0.098;2023-02-15T03:59:55;71.70;;;31.67;;
63259;SDS011;49390;51.380;0.098;2023-02-15T04:05:19;76.10;;;32.10;;
63259;SDS011;49390;51.380;0.098;2023-02-15T04:07:47;74.60;;;32.10;;
63259;SDS011;49390;51.380;0.098;2023-02-15T04:10:15;68.57;;;31.80;;
63259;SDS011;49390;51.380;0.098;2023-02-15T04:13:02;66.70;;;31.25;;
63259;SDS011;49390;51.380;0.098;2023-02-15T04:15:30;71.43;;;31.95;;
63259;SDS011;49390;51.380;0.098;2023-02-15T04:18:16;73.65;;;31.67;;
63259;SDS011;49390;51.380;0.098;2023-02-15T04:20:45;72.35;;;33.33;;
63259;SDS011;49390;51.380;0.098;2023-02-15T04:23:32;74.55;;;32.83;;
63259;SDS011;49390;51.380;0.098;2023-02-15T04:26:18;77.47;;;31.65;;
63259;SDS011;49390;51.380;0.098;2023-02-15T04:28:46;63.55;;;29.27;;
63259;SDS011;49390;51.380;0.098;2023-02-15T04:31:14;56.55;;;27.02;;
63259;SDS011;49390;51.380;0.098;2023-02-15T04:33:42;63.13;;;28.50;;
63259;SDS011;49390;51.380;0.098;2023-02-15T04:36:10;75.03;;;33.10;;
63259;SDS011;49390;51.380;0.098;2023-02-15T04:38:39;77.35;;;33.58;;
63259;SDS011;49390;51.380;0.098;2023-02-15T04:41:06;74.78;;;32.90;;
63259;SDS011;49390;51.380;0.098;2023-02-15T04:43:35;77.50;;;34.15;;
63259;SDS011;49390;51.380;0.098;2023-02-15T04:46:02;76.47;;;33.50;;
63259;SDS011;49390;51.380;0.098;2023-02-15T04:48:31;74.75;;;32.30;;
63259;SDS011;49390;51.380;0.098;2023-02-15T04:50:59;72.88;;;32.03;;
63259;SDS011;49390;51.380;0.098;2023-02-15T04:53:32;70.90;;;34.38;;
63259;SDS011;49390;51.380;0.098;2023-02-15T04:56:00;73.15;;;32.25;;
63259;SDS011;49390;51.380;0.098;2023-02-15T04:58:28;65.35;;;32.30;;
63259;SDS011;49390;51.380;0.098;2023-02-15T05:00:57;76.25;;;34.60;;
63259;SDS011;49390;51.380;0.098;2023-02-15T05:03:26;74.75;;;34.58;;
63259;SDS011;49390;51.380;0.098;2023-02-15T05:05:54;75.25;;;34.85;;
63259;SDS011;49390;51.380;0.098;2023-02-15T05:08:22;72.72;;;34.88;;
63259;SDS011;49390;51.380;0.098;2023-02-15T05:10:49;72.25;;;32.03;;
63259;SDS011;49390;51.380;0.098;2023-02-15T05:13:18;67.90;;;32.33;;
63259;SDS011;49390;51.380;0.098;2023-02-15T05:15:49;75.32;;;33.30;;
63259;SDS011;49390;51.380;0.098;2023-02-15T05:18:19;76.70;;;32.05;;
63259;SDS011;49390;51.380;0.098;2023-02-15T05:20:48;59.80;;;27.55;;
63259;SDS011;49390;51.380;0.098;2023-02-15T05:23:17;68.03;;;31.52;;
63259;SDS011;49390;51.380;0.098;2023-02-15T05:25:48;63.80;;;29.35;;
63259;SDS011;49390;51.380;0.098;2023-02-15T05:28:38;56.25;;;27.85;;
63259;SDS011;49390;51.380;0.098;2023-02-15T05:33:38;63.35;;;28.80;;
63259;SDS011;49390;51.380;0.098;2023-02-15T05:36:07;73.00;;;31.17;;
63259;SDS011;49390;51.380;0.098;2023-02-15T05:38:37;62.25;;;28.25;;
63259;SDS011;49390;51.380;0.098;2023-02-15T05:41:05;58.28;;;28.10;;
63259;SDS011;49390;51.380;0.098;2023-02-15T05:43:34;61.65;;;29.27;;
63259;SDS011;49390;51.380;0.098;2023-02-15T05:46:02;63.45;;;28.40;;
63259;SDS011;49390;51.380;0.098;2023-02-15T05:48:32;69.20;;;31.20;;
63259;SDS011;49390;51.380;0.098;2023-02-15T05:51:01;65.70;;;29.02;;
63259;SDS011;49390;51.380;0.098;2023-02-15T05:53:37;78.63;;;32.20;;
63259;SDS011;49390;51.380;0.098;2023-02-15T05:56:06;71.22;;;32.92;;
63259;SDS011;49390;51.380;0.098;2023-02-15T05:58:37;74.90;;;33.60;;
63259;SDS011;49390;51.380;0.098;2023-02-15T06:01:07;69.93;;;31.80;;
63259;SDS011;49390;51.380;0.098;2023-02-15T06:03:36;73.05;;;32.78;;
63259;SDS011;49390;51.380;0.098;2023-02-15T06:06:05;71.53;;;32.08;;
63259;SDS011;49390;51.380;0.098;2023-02-15T06:08:34;73.65;;;32.40;;
63259;SDS011;49390;51.380;0.098;2023-02-15T06:11:03;70.55;;;31.30;;
63259;SDS011;49390;51.380;0.098;2023-02-15T06:13:32;68.82;;;31.15;;
63259;SDS011;49390;51.380;0.098;2023-02-15T06:16:04;68.60;;;31.38;;
63259;SDS011;49390;51.380;0.098;2023-02-15T06:18:33;64.65;;;30.13;;
63259;SDS011;49390;51.380;0.098;2023-02-15T06:21:01;64.50;;;31.17;;
63259;SDS011;49390;51.380;0.098;2023-02-15T06:23:29;65.38;;;30.02;;
63259;SDS011;49390;51.380;0.098;2023-02-15T06:25:57;66.32;;;29.58;;
63259;SDS011;49390;51.380;0.098;2023-02-15T06:28:25;58.42;;;29.83;;
63259;SDS011;49390;51.380;0.098;2023-02-15T06:30:55;63.85;;;29.48;;
63259;SDS011;49390;51.380;0.098;2023-02-15T06:33:24;67.72;;;30.83;;
63259;SDS011;49390;51.380;0.098;2023-02-15T06:35:52;68.60;;;31.08;;
63259;SDS011;49390;51.380;0.098;2023-02-15T06:38:20;65.68;;;30.17;;
63259;SDS011;49390;51.380;0.098;2023-02-15T06:40:47;67.90;;;30.83;;
63259;SDS011;49390;51.380;0.098;2023-02-15T06:43:15;65.53;;;31.27;;
63259;SDS011;49390;51.380;0.098;2023-02-15T06:45:43;68.82;;;30.92;;
63259;SDS011;49390;51.380;0.098;2023-02-15T06:48:12;72.03;;;33.05;;
63259;SDS011;49390;51.380;0.098;2023-02-15T06:50:39;69.03;;;32.83;;
63259;SDS011;49390;51.380;0.098;2023-02-15T06:53:07;68.25;;;30.30;;
63259;SDS011;49390;51.380;0.098;2023-02-15T06:55:35;67.43;;;30.15;;
63259;SDS011;49390;51.380;0.098;2023-02-15T06:58:03;71.15;;;31.92;;
63259;SDS011;49390;51.380;0.098;2023-02-15T07:00:31;64.15;;;28.75;;
63259;SDS011;49390;51.380;0.098;2023-02-15T07:02:59;59.40;;;29.42;;
63259;SDS011;49390;51.380;0.098;2023-02-15T07:05:32;64.65;;;30.13;;
63259;SDS011;49390;51.380;0.098;2023-02-15T07:08:01;66.10;;;30.98;;
63259;SDS011;49390;51.380;0.098;2023-02-15T07:10:29;67.88;;;30.48;;
63259;SDS011;49390;51.380;0.098;2023-02-15T07:12:57;66.82;;;30.25;;
63259;SDS011;49390;51.380;0.098;2023-02-15T07:15:25;64.05;;;30.42;;
63259;SDS011;49390;51.380;0.098;2023-02-15T07:17:53;68.05;;;30.02;;
63259;SDS011;49390;51.380;0.098;2023-02-15T07:20:22;69.32;;;30.90;;
63259;SDS011;49390;51.380;0.098;2023-02-15T07:22:50;62.13;;;28.75;;
63259;SDS011;49390;51.380;0.098;2023-02-15T07:25:18;63.83;;;28.65;;
63259;SDS011;49390;51.380;0.098;2023-02-15T07:27:55;58.50;;;29.00;;
63259;SDS011;49390;51.380;0.098;2023-02-15T07:30:24;63.70;;;29.40;;
63259;SDS011;49390;51.380;0.098;2023-02-15T07:32:58;62.90;;;27.70;;
63259;SDS011;49390;51.380;0.098;2023-02-15T07:35:48;61.10;;;28.67;;
63259;SDS011;49390;51.380;0.098;2023-02-15T07:38:37;65.22;;;31.00;;
63259;SDS011;49390;51.380;0.098;2023-02-15T07:41:07;62.72;;;29.65;;
63259;SDS011;49390;51.380;0.098;2023-02-15T07:43:38;68.38;;;29.83;;
63259;SDS011;49390;51.380;0.098;2023-02-15T07:46:09;68.60;;;31.48;;
63259;SDS011;49390;51.380;0.098;2023-02-15T07:48:42;61.28;;;28.92;;
63259;SDS011;49390;51.380;0.098;2023-02-15T07:51:11;60.42;;;29.92;;
63259;SDS011;49390;51.380;0.098;2023-02-15T07:53:40;60.90;;;29.15;;
63259;SDS011;49390;51.380;0.098;2023-02-15T07:56:12;60.65;;;28.92;;
63259;SDS011;49390;51.380;0.098;2023-02-15T07:58:41;61.33;;;29.48;;
63259;SDS011;49390;51.380;0.098;2023-02-15T08:01:19;64.45;;;28.45;;
63259;SDS011;49390;51.380;0.098;2023-02-15T08:03:50;60.85;;;29.45;;
63259;SDS011;49390;51.380;0.098;2023-02-15T08:06:18;58.95;;;29.67;;
63259;SDS011;49390;51.380;0.098;2023-02-15T08:08:47;61.60;;;27.75;;
63259;SDS011;49390;51.380;0.098;2023-02-15T08:11:19;54.15;;;27.15;;
63259;SDS011;49390;51.380;0.098;2023-02-15T08:13:55;59.55;;;25.83;;
63259;SDS011;49390;51.380;0.098;2023-02-15T08:16:27;55.90;;;23.83;;
63259;SDS011;49390;51.380;0.098;2023-02-15T08:18:58;49.85;;;24.98;;
63259;SDS011;49390;51.380;0.098;2023-02-15T08:21:28;52.40;;;25.27;;
63259;SDS011;49390;51.380;0.098;2023-02-15T08:23:57;49.20;;;24.27;;
63259;SDS011;49390;51.380;0.098;2023-02-15T08:26:26;48.67;;;23.80;;
63259;SDS011;49390;51.380;0.098;2023-02-15T08:28:55;46.65;;;22.70;;
63259;SDS011;49390;51.380;0.098;2023-02-15T08:31:23;45.55;;;22.83;;
63259;SDS011;49390;51.380;0.098;2023-02-15T08:33:52;45.15;;;22.90;;
63259;SDS011;49390;51.380;0.098;2023-02-15T08:36:22;44.13;;;22.05;;
63259;SDS011;49390;51.380;0.098;2023-02-15T08:38:52;50.60;;;23.70;;
63259;SDS011;49390;51.380;0.098;2023-02-15T08:41:24;45.38;;;23.38;;
63259;SDS011;49390;51.380;0.098;2023-02-15T08:43:54;45.95;;;21.90;;
63259;SDS011;49390;51.380;0.098;2023-02-15T08:46:24;47.15;;;22.58;;
63259;SDS011;49390;51.380;0.098;2023-02-15T08:48:54;44.28;;;22.55;;
63259;SDS011;49390;51.380;0.098;2023-02-15T08:51:23;43.80;;;22.60;;
63259;SDS011;49390;51.380;0.098;2023-02-15T08:53:53;46.90;;;21.50;;
63259;SDS011;49390;51.380;0.098;2023-02-15T08:56:24;49.45;;;23.10;;
63259;SDS011;49390;51.380;0.098;2023-02-15T08:58:54;47.70;;;23.60;;
63259;SDS011;49390;51.380;0.098;2023-02-15T09:01:24;47.63;;;23.42;;
63259;SDS011;49390;51.380;0.098;2023-02-15T09:06:24;43.28;;;22.25;;
63259;SDS011;49390;51.380;0.098;2023-02-15T09:08:53;43.15;;;21.20;;
63259;SDS011;49390;51.380;0.098;2023-02-15T09:11:25;45.10;;;23.02;;
63259;SDS011;49390;51.380;0.098;2023-02-15T09:13:56;48.95;;;22.08;;
63259;SDS011;49390;51.380;0.098;2023-02-15T09:16:27;44.90;;;21.88;;
63259;SDS011;49390;51.380;0.098;2023-02-15T09:18:57;42.50;;;21.08;;
63259;SDS011;49390;51.380;0.098;2023-02-15T09:21:25;41.35;;;20.00;;
63259;SDS011;49390;51.380;0.098;2023-02-15T09:23:58;42.30;;;22.05;;
63259;SDS011;49390;51.380;0.098;2023-02-15T09:26:29;38.60;;;19.92;;
63259;SDS011;49390;51.380;0.098;2023-02-15T09:28:59;40.65;;;20.23;;
63259;SDS011;49390;51.380;0.098;2023-02-15T09:31:39;42.47;;;20.73;;
63259;SDS011;49390;51.380;0.098;2023-02-15T09:34:09;39.30;;;20.20;;
63259;SDS011;49390;51.380;0.098;2023-02-15T09:36:38;36.60;;;18.27;;
63259;SDS011;49390;51.380;0.098;2023-02-15T09:55:44;30.45;;;17.95;;
63259;SDS011;49390;51.380;0.098;2023-02-15T10:12:07;30.88;;;17.17;;
63259;SDS011;49390;51.380;0.098;2023-02-15T10:28:57;31.02;;;17.48;;
63259;SDS011;49390;51.380;0.098;2023-02-15T10:34:16;29.52;;;16.42;;
63259;SDS011;49390;51.380;0.098;2023-02-15T10:48:46;29.30;;;14.25;;
63259;SDS011;49390;51.380;0.098;2023-02-15T10:51:36;25.25;;;13.95;;
63259;SDS011;49390;51.380;0.098;2023-02-15T10:57:02;30.20;;;14.52;;
63259;SDS011;49390;51.380;0.098;2023-02-15T11:04:57;26.92;;;14.30;;
63259;SDS011;49390;51.380;0.098;2023-02-15T11:07:49;23.70;;;14.05;;
63259;SDS011;49390;51.380;0.098;2023-02-15T11:10:30;29.10;;;14.18;;
63259;SDS011;49390;51.380;0.098;2023-02-15T11:13:04;26.77;;;14.77;;
63259;SDS011;49390;51.380;0.098;2023-02-15T11:15:41;37.75;;;15.48;;
63259;SDS011;49390;51.380;0.098;2023-02-15T11:21:07;24.08;;;13.40;;
63259;SDS011;49390;51.380;0.098;2023-02-15T11:23:47;25.77;;;14.07;;
63259;SDS011;49390;51.380;0.098;2023-02-15T11:26:21;22.05;;;11.85;;
63259;SDS011;49390;51.380;0.098;2023-02-15T11:28:53;24.52;;;12.55;;
63259;SDS011;49390;51.380;0.098;2023-02-15T11:31:26;18.58;;;11.63;;
63259;SDS011;49390;51.380;0.098;2023-02-15T11:34:05;24.10;;;12.18;;
63259;SDS011;49390;51.380;0.098;2023-02-15T11:37:10;21.58;;;11.45;;
63259;SDS011;49390;51.380;0.098;2023-02-15T11:39:41;21.55;;;13.05;;
63259;SDS011;49390;51.380;0.098;2023-02-15T11:42:14;24.90;;;12.57;;
63259;SDS011;49390;51.380;0.098;2023-02-15T11:45:11;24.27;;;12.02;;
63259;SDS011;49390;51.380;0.098;2023-02-15T11:47:53;21.27;;;11.20;;
63259;SDS011;49390;51.380;0.098;2023-02-15T11:50:31;20.95;;;11.73;;
63259;SDS011;49390;51.380;0.098;2023-02-15T11:53:02;23.85;;;12.55;;
63259;SDS011;49390;51.380;0.098;2023-02-15T11:55:39;24.60;;;11.88;;
63259;SDS011;49390;51.380;0.098;2023-02-15T12:00:54;19.67;;;11.45;;
63259;SDS011;49390;51.380;0.098;2023-02-15T12:06:02;19.48;;;11.73;;
63259;SDS011;49390;51.380;0.098;2023-02-15T12:08:38;21.42;;;10.93;;
63259;SDS011;49390;51.380;0.098;2023-02-15T12:11:12;24.08;;;11.88;;
63259;SDS011;49390;51.380;0.098;2023-02-15T12:16:24;19.40;;;10.90;;
63259;SDS011;49390;51.380;0.098;2023-02-15T12:18:54;20.70;;;10.52;;
63259;SDS011;49390;51.380;0.098;2023-02-15T12:25:51;20.55;;;9.75;;
63259;SDS011;49390;51.380;0.098;2023-02-15T12:31:01;19.03;;;10.63;;
63259;SDS011;49390;51.380;0.098;2023-02-15T12:33:34;18.77;;;11.05;;
63259;SDS011;49390;51.380;0.098;2023-02-15T12:36:20;22.45;;;10.75;;
63259;SDS011;49390;51.380;0.098;2023-02-15T12:39:03;19.13;;;11.13;;
63259;SDS011;49390;51.380;0.098;2023-02-15T12:41:36;22.83;;;10.52;;
63259;SDS011;49390;51.380;0.098;2023-02-15T12:46:41;19.63;;;10.05;;
63259;SDS011;49390;51.380;0.098;2023-02-15T12:52:23;18.60;;;9.95;;
63259;SDS011;49390;51.380;0.098;2023-02-15T13:00:05;16.67;;;9.30;;
63259;SDS011;49390;51.380;0.098;2023-02-15T13:02:56;17.38;;;9.88;;
63259;SDS011;49390;51.380;0.098;2023-02-15T13:13:26;17.17;;;8.77;;
63259;SDS011;49390;51.380;0.098;2023-02-15T13:15:58;19.58;;;9.07;;
63259;SDS011;49390;51.380;0.098;2023-02-15T13:18:30;15.80;;;9.32;;
63259;SDS011;49390;51.380;0.098;2023-02-15T13:23:47;17.67;;;8.23;;
63259;SDS011;49390;51.380;0.098;2023-02-15T13:26:26;15.18;;;8.30;;
63259;SDS011;49390;51.380;0.098;2023-02-15T13:28:58;13.57;;;8.05;;
63259;SDS011;49390;51.380;0.098;2023-02-15T13:31:36;14.80;;;8.75;;
63259;SDS011;49390;51.380;0.098;2023-02-15T13:34:12;13.23;;;8.50;;
63259;SDS011;49390;51.380;0.098;2023-02-15T13:37:08;16.67;;;8.57;;
63259;SDS011;49390;51.380;0.098;2023-02-15T13:46:05;14.93;;;7.80;;
63259;SDS011;49390;51.380;0.098;2023-02-15T14:14:52;17.10;;;7.90;;
63259;SDS011;49390;51.380;0.098;2023-02-15T14:17:46;11.30;;;7.28;;
63259;SDS011;49390;51.380;0.098;2023-02-15T14:26:19;14.23;;;6.22;;
63259;SDS011;49390;51.380;0.098;2023-02-15T14:31:58;13.85;;;6.55;;
63259;SDS011;49390;51.380;0.098;2023-02-15T14:34:38;12.95;;;6.75;;
63259;SDS011;49390;51.380;0.098;2023-02-15T14:40:19;14.82;;;6.53;;
63259;SDS011;49390;51.380;0.098;2023-02-15T14:51:59;17.00;;;6.72;;
63259;SDS011;49390;51.380;0.098;2023-02-15T14:59:36;14.13;;;6.63;;
63259;SDS011;49390;51.380;0.098;2023-02-15T15:07:44;14.25;;;6.38;;
63259;SDS011;49390;51.380;0.098;2023-02-15T15:12:55;12.38;;;5.88;;
63259;SDS011;49390;51.380;0.098;2023-02-15T15:15:46;10.57;;;6.03;;
63259;SDS011;49390;51.380;0.098;2023-02-15T15:32:42;17.80;;;6.47;;
63259;SDS011;49390;51.380;0.098;2023-02-15T15:36:27;11.55;;;5.97;;
63259;SDS011;49390;51.380;0.098;2023-02-15T15:38:53;14.18;;;5.70;;
63259;SDS011;49390;51.380;0.098;2023-02-15T15:41:43;12.65;;;6.05;;
63259;SDS011;49390;51.380;0.098;2023-02-15T15:49:58;13.93;;;5.90;;
63259;SDS011;49390;51.380;0.098;2023-02-15T15:52:27;10.05;;;6.35;;
63259;SDS011;49390;51.380;0.098;2023-02-15T15:55:02;14.43;;;6.25;;
63259;SDS011;49390;51.380;0.098;2023-02-15T15:57:34;13.40;;;5.72;;
63259;SDS011;49390;51.380;0.098;2023-02-15T16:00:15;13.23;;;6.10;;
63259;SDS011;49390;51.380;0.098;2023-02-15T16:02:50;12.95;;;6.15;;
63259;SDS011;49390;51.380;0.098;2023-02-15T16:05:25;15.23;;;5.93;;
63259;SDS011;49390;51.380;0.098;2023-02-15T16:07:53;14.73;;;6.00;;
63259;SDS011;49390;51.380;0.098;2023-02-15T16:10:25;14.10;;;5.93;;
63259;SDS011;49390;51.380;0.098;2023-02-15T16:12:55;14.70;;;6.40;;
63259;SDS011;49390;51.380;0.098;2023-02-15T16:15:24;12.15;;;5.97;;
63259;SDS011;49390;51.380;0.098;2023-02-15T16:17:58;12.18;;;6.38;;
63259;SDS011;49390;51.380;0.098;2023-02-15T16:20:30;11.32;;;6.38;;
63259;SDS011;49390;51.380;0.098;2023-02-15T16:28:33;14.95;;;6.35;;
63259;SDS011;49390;51.380;0.098;2023-02-15T16:31:06;15.38;;;6.35;;
63259;SDS011;49390;51.380;0.098;2023-02-15T16:33:37;11.98;;;5.82;;
63259;SDS011;49390;51.380;0.098;2023-02-15T16:36:10;12.70;;;6.15;;
63259;SDS011;49390;51.380;0.098;2023-02-15T16:41:13;13.20;;;6.43;;
63259;SDS011;49390;51.380;0.098;2023-02-15T16:43:49;13.90;;;7.25;;
63259;SDS011;49390;51.380;0.098;2023-02-15T16:46:20;15.65;;;6.85;;
63259;SDS011;49390;51.380;0.098;2023-02-15T16:48:55;18.08;;;7.07;;
63259;SDS011;49390;51.380;0.098;2023-02-15T16:51:26;15.60;;;6.57;;
63259;SDS011;49390;51.380;0.098;2023-02-15T16:53:59;14.73;;;6.70;;
63259;SDS011;49390;51.380;0.098;2023-02-15T16:56:34;13.50;;;6.65;;
63259;SDS011;49390;51.380;0.098;2023-02-15T16:59:02;15.52;;;8.30;;
63259;SDS011;49390;51.380;0.098;2023-02-15T17:01:30;12.63;;;6.93;;
63259;SDS011;49390;51.380;0.098;2023-02-15T17:04:10;13.50;;;6.57;;
63259;SDS011;49390;51.380;0.098;2023-02-15T17:06:39;15.25;;;6.97;;
63259;SDS011;49390;51.380;0.098;2023-02-15T17:09:13;14.05;;;7.20;;
63259;SDS011;49390;51.380;0.098;2023-02-15T17:11:46;13.95;;;7.00;;
63259;SDS011;49390;51.380;0.098;2023-02-15T17:14:19;12.18;;;7.32;;
63259;SDS011;49390;51.380;0.098;2023-02-15T17:17:34;13.88;;;8.10;;
63259;SDS011;49390;51.380;0.098;2023-02-15T17:19:48;15.73;;;7.35;;
63259;SDS011;49390;51.380;0.098;2023-02-15T17:22:20;14.45;;;7.47;;
63259;SDS011;49390;51.380;0.098;2023-02-15T17:24:57;13.52;;;7.45;;
63259;SDS011;49390;51.380;0.098;2023-02-15T17:27:27;17.70;;;8.07;;
63259;SDS011;49390;51.380;0.098;2023-02-15T17:30:00;15.23;;;8.30;;
63259;SDS011;49390;51.380;0.098;2023-02-15T17:32:31;14.73;;;7.40;;
63259;SDS011;49390;51.380;0.098;2023-02-15T17:37:46;17.55;;;8.15;;
63259;SDS011;49390;51.380;0.098;2023-02-15T17:42:46;15.87;;;7.93;;
63259;SDS011;49390;51.380;0.098;2023-02-15T17:45:15;17.70;;;8.20;;
63259;SDS011;49390;51.380;0.098;2023-02-15T17:47:44;15.07;;;8.40;;
63259;SDS011;49390;51.380;0.098;2023-02-15T17:50:25;15.85;;;8.63;;
63259;SDS011;49390;51.380;0.098;2023-02-15T17:52:57;16.67;;;8.93;;
63259;SDS011;49390;51.380;0.098;2023-02-15T17:55:27;21.25;;;9.85;;
63259;SDS011;49390;51.380;0.098;2023-02-15T17:58:05;21.65;;;10.48;;
63259;SDS011;49390;51.380;0.098;2023-02-15T18:03:33;18.63;;;9.23;;
63259;SDS011;49390;51.380;0.098;2023-02-15T18:06:29;19.27;;;9.90;;
63259;SDS011;49390;51.380;0.098;2023-02-15T18:09:16;14.27;;;8.48;;
63259;SDS011;49390;51.380;0.098;2023-02-15T18:12:26;19.10;;;9.13;;
63259;SDS011;49390;51.380;0.098;2023-02-15T18:14:56;18.30;;;9.93;;
63259;SDS011;49390;51.380;0.098;2023-02-15T18:17:28;58.15;;;35.72;;
63259;SDS011;49390;51.380;0.098;2023-02-15T18:20:06;21.58;;;11.52;;
63259;SDS011;49390;51.380;0.098;2023-02-15T18:22:44;19.38;;;10.40;;
63259;SDS011;49390;51.380;0.098;2023-02-15T18:25:13;19.88;;;9.35;;
63259;SDS011;49390;51.380;0.098;2023-02-15T18:27:42;17.02;;;9.77;;
63259;SDS011;49390;51.380;0.098;2023-02-15T18:30:18;18.50;;;9.57;;
63259;SDS011;49390;51.380;0.098;2023-02-15T18:32:50;16.77;;;9.07;;
63259;SDS011;49390;51.380;0.098;2023-02-15T18:35:21;20.30;;;9.18;;
63259;SDS011;49390;51.380;0.098;2023-02-15T18:37:51;18.05;;;8.15;;
63259;SDS011;49390;51.380;0.098;2023-02-15T18:40:22;20.48;;;8.63;;
63259;SDS011;49390;51.380;0.098;2023-02-15T18:42:53;19.65;;;8.77;;
63259;SDS011;49390;51.380;0.098;2023-02-15T18:45:24;15.43;;;8.38;;
63259;SDS011;49390;51.380;0.098;2023-02-15T18:47:55;16.80;;;8.43;;
63259;SDS011;49390;51.380;0.098;2023-02-15T18:50:23;17.80;;;9.10;;
63259;SDS011;49390;51.380;0.098;2023-02-15T18:52:57;16.92;;;8.60;;
63259;SDS011;49390;51.380;0.098;2023-02-15T18:55:26;16.88;;;9.40;;
63259;SDS011;49390;51.380;0.098;2023-02-15T18:57:55;20.77;;;9.30;;
63259;SDS011;49390;51.380;0.098;2023-02-15T19:00:30;16.13;;;9.50;;
63259;SDS011;49390;51.380;0.098;2023-02-15T19:03:00;18.58;;;9.73;;
63259;SDS011;49390;51.380;0.098;2023-02-15T19:05:29;18.08;;;9.70;;
63259;SDS011;49390;51.380;0.098;2023-02-15T19:07:58;23.27;;;10.32;;